createdAt,value
2023-02-19T00:00:06.059Z,99.90
2023-02-19T00:02:41.026Z,99.90
2023-02-19T00:05:09.205Z,99.90
2023-02-19T00:07:37.044Z,99.90
2023-02-19T00:10:05.061Z,99.90
2023-02-19T00:12:33.341Z,99.90
2023-02-19T00:15:01.146Z,99.90
2023-02-19T00:17:28.987Z,99.90
2023-02-19T00:19:57.233Z,99.90
2023-02-19T00:22:25.082Z,99.90
2023-02-19T00:24:53.299Z,99.90
2023-02-19T00:27:21.280Z,99.90
2023-02-19T00:29:50.525Z,99.90
2023-02-19T00:32:18.268Z,99.90
2023-02-19T00:34:46.286Z,99.90
2023-02-19T00:37:14.202Z,99.90
2023-02-19T00:39:42.095Z,99.90
2023-02-19T00:42:10.023Z,99.90
2023-02-19T00:44:38.062Z,99.90
2023-02-19T00:47:06.485Z,99.90
2023-02-19T00:49:34.387Z,99.90
2023-02-19T00:52:02.325Z,99.90
2023-02-19T00:54:31.897Z,99.90
2023-02-19T00:56:59.901Z,99.90
2023-02-19T00:59:28.499Z,99.90
2023-02-19T01:01:56.535Z,99.90
2023-02-19T01:04:24.426Z,99.90
2023-02-19T01:06:52.408Z,99.90
2023-02-19T01:09:20.403Z,99.90
2023-02-19T01:11:48.377Z,99.90
2023-02-19T01:14:16.297Z,99.90
2023-02-19T01:16:44.221Z,99.90
2023-02-19T01:19:12.946Z,99.90
2023-02-19T01:21:42.130Z,99.90
2023-02-19T01:24:11.630Z,99.90
2023-02-19T01:26:41.070Z,99.90
2023-02-19T01:29:09.193Z,99.90
2023-02-19T01:31:38.121Z,99.90
2023-02-19T01:34:06.869Z,99.90
2023-02-19T01:36:35.640Z,99.90
2023-02-19T01:39:05.944Z,99.90
2023-02-19T01:41:39.266Z,99.90
2023-02-19T01:44:08.641Z,99.90
2023-02-19T01:46:38.807Z,99.90
2023-02-19T01:49:25.397Z,99.90
2023-02-19T01:52:01.342Z,99.90
2023-02-19T01:54:33.530Z,99.90
2023-02-19T01:57:04.814Z,99.90
2023-02-19T01:59:33.884Z,99.90
2023-02-19T02:02:01.988Z,99.90
2023-02-19T02:04:34.287Z,99.90
2023-02-19T02:07:24.748Z,99.90
2023-02-19T02:10:12.058Z,99.90
2023-02-19T02:12:40.394Z,99.90
2023-02-19T02:15:09.098Z,99.90
2023-02-19T02:17:57.034Z,99.90
2023-02-19T02:20:51.643Z,99.90
2023-02-19T02:23:40.564Z,99.90
2023-02-19T02:26:38.604Z,99.90
2023-02-19T02:29:25.865Z,99.90
2023-02-19T02:32:11.898Z,99.90
2023-02-19T02:34:50.619Z,99.90
2023-02-19T02:37:18.852Z,99.90
2023-02-19T02:39:48.189Z,99.90
2023-02-19T02:42:28.152Z,99.90
2023-02-19T02:45:37.248Z,99.90
2023-02-19T02:48:56.429Z,99.90
2023-02-19T02:51:35.758Z,99.90
2023-02-19T02:54:42.605Z,99.90
2023-02-19T02:57:15.245Z,99.90
2023-02-19T02:59:54.092Z,99.90
2023-02-19T03:02:28.517Z,99.90
2023-02-19T03:05:40.553Z,99.90
2023-02-19T03:08:27.798Z,99.90
2023-02-19T03:11:25.152Z,99.90
2023-02-19T03:14:25.564Z,99.90
2023-02-19T03:17:19.495Z,99.90
2023-02-19T03:19:54.280Z,99.90
2023-02-19T03:22:37.527Z,99.90
2023-02-19T03:25:28.920Z,99.90
2023-02-19T03:28:01.060Z,99.90
2023-02-19T03:30:36.858Z,99.90
2023-02-19T03:33:10.156Z,99.90
2023-02-19T03:35:54.051Z,99.90
2023-02-19T03:38:37.280Z,99.90
2023-02-19T03:41:17.010Z,99.90
2023-02-19T03:44:13.180Z,99.90
2023-02-19T03:46:55.714Z,99.90
2023-02-19T03:49:42.308Z,99.90
2023-02-19T03:52:42.581Z,99.90
2023-02-19T03:55:33.321Z,99.90
2023-02-19T03:58:11.253Z,99.90
2023-02-19T04:00:57.581Z,99.90
2023-02-19T04:03:48.845Z,99.90
2023-02-19T04:06:26.632Z,99.90
2023-02-19T04:09:02.483Z,99.90
2023-02-19T04:11:32.594Z,99.90
2023-02-19T04:14:10.682Z,99.90
2023-02-19T04:16:43.115Z,99.90
2023-02-19T04:19:15.614Z,99.90
2023-02-19T04:21:45.589Z,99.90
2023-02-19T04:24:29.808Z,99.90
2023-02-19T04:26:58.170Z,99.90
2023-02-19T04:29:26.033Z,99.90
2023-02-19T04:31:54.030Z,99.90
2023-02-19T04:34:21.897Z,99.90
2023-02-19T04:36:49.843Z,99.90
2023-02-19T04:39:17.610Z,99.90
2023-02-19T04:41:45.515Z,99.90
2023-02-19T04:44:13.308Z,99.90
2023-02-19T04:46:43.126Z,99.90
2023-02-19T04:49:11.812Z,99.90
2023-02-19T04:51:40.432Z,99.90
2023-02-19T04:54:08.649Z,99.90
2023-02-19T04:56:36.436Z,99.90
2023-02-19T04:59:04.504Z,99.90
2023-02-19T05:01:32.352Z,99.90
2023-02-19T05:04:00.373Z,99.90
2023-02-19T05:06:28.516Z,99.90
2023-02-19T05:08:56.404Z,99.90
2023-02-19T05:11:24.321Z,99.90
2023-02-19T05:13:56.570Z,99.90
2023-02-19T05:16:25.040Z,99.90
2023-02-19T05:18:52.838Z,99.90
2023-02-19T05:21:21.165Z,99.90
2023-02-19T05:23:49.026Z,99.90
2023-02-19T05:26:22.357Z,99.90
2023-02-19T05:28:53.217Z,99.90
2023-02-19T05:31:22.041Z,99.90
2023-02-19T05:33:51.740Z,99.90
2023-02-19T05:36:21.816Z,99.90
2023-02-19T05:38:54.490Z,99.90
2023-02-19T05:41:28.079Z,99.90
2023-02-19T05:43:56.793Z,99.90
2023-02-19T05:46:29.828Z,99.90
2023-02-19T05:49:01.487Z,99.90
2023-02-19T05:51:29.766Z,99.90
2023-02-19T05:53:58.285Z,99.90
2023-02-19T05:56:28.901Z,99.90
2023-02-19T05:58:58.957Z,99.90
2023-02-19T06:01:29.186Z,99.90
2023-02-19T06:03:58.390Z,99.90
2023-02-19T06:06:27.793Z,99.90
2023-02-19T06:08:56.183Z,99.90
2023-02-19T06:11:24.400Z,99.90
2023-02-19T06:13:52.805Z,99.90
2023-02-19T06:16:22.461Z,99.90
2023-02-19T06:18:50.829Z,99.90
2023-02-19T06:21:19.712Z,99.90
2023-02-19T06:23:47.980Z,99.90
2023-02-19T06:26:19.607Z,99.90
2023-02-19T06:28:49.671Z,99.90
2023-02-19T06:31:19.135Z,99.90
2023-02-19T06:33:47.588Z,99.90
2023-02-19T06:36:18.671Z,99.90
2023-02-19T06:38:46.779Z,99.90
2023-02-19T06:41:15.102Z,99.90
2023-02-19T06:43:43.443Z,99.90
2023-02-19T06:46:13.346Z,99.90
2023-02-19T06:48:43.410Z,99.90
2023-02-19T06:51:16.178Z,99.90
2023-02-19T06:53:44.317Z,99.90
2023-02-19T06:56:34.573Z,99.90
2023-02-19T06:59:04.699Z,99.90
2023-02-19T07:01:34.125Z,99.90
2023-02-19T07:04:02.279Z,99.90
2023-02-19T07:06:30.760Z,99.90
2023-02-19T07:08:59.891Z,99.90
2023-02-19T07:11:31.321Z,99.90
2023-02-19T07:14:01.732Z,99.50
2023-02-19T07:16:31.138Z,99.10
2023-02-19T07:19:00.308Z,98.70
2023-02-19T07:21:29.354Z,98.50
2023-02-19T07:23:57.983Z,98.10
2023-02-19T07:26:26.546Z,98.00
2023-02-19T07:28:54.716Z,97.90
2023-02-19T07:31:24.828Z,97.30
2023-02-19T07:33:53.064Z,96.60
2023-02-19T07:36:23.070Z,96.20
2023-02-19T07:38:57.800Z,96.30
2023-02-19T07:41:27.144Z,97.20
2023-02-19T07:43:58.866Z,98.10
2023-02-19T07:46:27.236Z,98.10
2023-02-19T07:48:55.082Z,98.60
2023-02-19T07:51:23.861Z,98.40
2023-02-19T07:53:52.755Z,98.50
2023-02-19T07:56:21.487Z,97.80
2023-02-19T07:58:49.734Z,98.00
2023-02-19T08:01:41.578Z,97.70
2023-02-19T08:04:11.057Z,99.10
2023-02-19T08:06:39.554Z,99.20
2023-02-19T08:09:07.831Z,99.40
2023-02-19T08:11:54.138Z,99.30
2023-02-19T08:14:27.229Z,98.70
2023-02-19T08:16:55.879Z,98.90
2023-02-19T08:19:24.106Z,98.10
2023-02-19T08:21:54.105Z,98.30
2023-02-19T08:24:22.205Z,97.90
2023-02-19T08:26:50.096Z,97.40
2023-02-19T08:29:20.846Z,97.00
2023-02-19T08:31:49.520Z,97.10
2023-02-19T08:34:17.535Z,96.00
2023-02-19T08:36:45.650Z,95.90
2023-02-19T08:39:13.653Z,96.00
2023-02-19T08:41:41.603Z,95.20
2023-02-19T08:44:09.738Z,95.20
2023-02-19T08:46:38.213Z,95.50
2023-02-19T08:49:06.008Z,94.80
2023-02-19T08:51:34.178Z,94.70
2023-02-19T08:54:04.653Z,94.20
2023-02-19T08:56:32.627Z,93.10
2023-02-19T08:59:00.493Z,93.20
2023-02-19T09:01:28.540Z,93.10
2023-02-19T09:03:56.355Z,92.70
2023-02-19T09:06:24.371Z,93.00
2023-02-19T09:08:52.296Z,93.80
2023-02-19T09:11:21.424Z,93.10
2023-02-19T09:13:49.297Z,92.60
2023-02-19T09:16:17.088Z,91.70
2023-02-19T09:18:46.369Z,91.80
2023-02-19T09:21:14.988Z,91.20
2023-02-19T09:23:43.033Z,91.00
2023-02-19T09:26:14.112Z,91.20
2023-02-19T09:28:45.421Z,91.10
2023-02-19T09:31:16.812Z,89.40
2023-02-19T09:33:46.945Z,88.80
2023-02-19T09:36:16.592Z,87.60
2023-02-19T09:38:45.122Z,86.80
2023-02-19T09:41:29.706Z,83.90
2023-02-19T09:44:04.500Z,85.60
2023-02-19T09:46:40.604Z,82.90
2023-02-19T09:49:18.850Z,84.10
2023-02-19T09:51:52.416Z,83.30
2023-02-19T09:54:32.381Z,81.60
2023-02-19T09:57:03.316Z,80.50
2023-02-19T09:59:46.587Z,79.70
2023-02-19T10:02:18.229Z,77.70
2023-02-19T10:04:47.654Z,78.70
2023-02-19T10:07:20.543Z,75.40
2023-02-19T10:10:24.340Z,76.30
2023-02-19T10:12:56.396Z,76.90
2023-02-19T10:15:39.491Z,75.60
2023-02-19T10:18:10.188Z,74.10
2023-02-19T10:20:40.465Z,71.30
2023-02-19T10:23:11.469Z,69.90
2023-02-19T10:25:47.867Z,70.10
2023-02-19T10:28:19.963Z,68.10
2023-02-19T10:30:53.751Z,66.00
2023-02-19T10:33:23.420Z,65.20
2023-02-19T10:35:58.570Z,64.70
2023-02-19T10:38:31.080Z,65.60
2023-02-19T10:41:18.095Z,64.00
2023-02-19T10:44:08.175Z,63.20
2023-02-19T10:46:43.765Z,60.80
2023-02-19T10:49:28.758Z,60.20
2023-02-19T10:52:02.799Z,59.70
2023-02-19T10:54:35.518Z,59.50
2023-02-19T10:57:30.160Z,58.30
2023-02-19T11:00:14.026Z,57.90
2023-02-19T11:02:43.544Z,57.40
2023-02-19T11:05:17.507Z,56.40
2023-02-19T11:07:57.350Z,54.50
2023-02-19T11:10:29.925Z,53.00
2023-02-19T11:13:01.087Z,54.20
2023-02-19T11:15:35.056Z,52.70
2023-02-19T11:18:12.636Z,51.40
2023-02-19T11:20:55.629Z,50.20
2023-02-19T11:23:38.974Z,50.30
2023-02-19T11:26:20.115Z,49.80
2023-02-19T11:28:58.201Z,49.20
2023-02-19T11:31:35.017Z,48.90
2023-02-19T11:34:21.886Z,49.00
2023-02-19T11:37:18.705Z,49.30
2023-02-19T11:39:49.694Z,47.10
2023-02-19T11:42:36.510Z,47.10
2023-02-19T11:45:13.403Z,46.90
2023-02-19T11:48:17.051Z,47.00
2023-02-19T11:51:22.947Z,45.80
2023-02-19T11:54:19.435Z,46.80
2023-02-19T11:56:54.764Z,46.10
2023-02-19T11:59:30.079Z,45.80
2023-02-19T12:02:30.555Z,45.50
2023-02-19T12:05:10.395Z,44.70
2023-02-19T12:07:53.296Z,43.60
2023-02-19T12:11:04.049Z,43.00
2023-02-19T12:13:47.092Z,42.90
2023-02-19T12:16:31.511Z,42.60
2023-02-19T12:19:14.188Z,42.90
2023-02-19T12:21:57.973Z,42.00
2023-02-19T12:24:56.645Z,42.70
2023-02-19T12:27:58.600Z,42.20
2023-02-19T12:30:32.910Z,42.40
2023-02-19T12:33:19.412Z,41.70
2023-02-19T12:36:09.668Z,41.90
2023-02-19T12:38:45.992Z,40.60
2023-02-19T12:41:38.228Z,40.70
2023-02-19T12:44:36.646Z,40.60
2023-02-19T12:47:07.354Z,41.10
2023-02-19T12:49:42.927Z,40.30
2023-02-19T12:52:15.699Z,39.80
2023-02-19T12:54:47.104Z,39.30
2023-02-19T12:57:30.408Z,39.40
2023-02-19T13:00:30.599Z,39.70
2023-02-19T13:03:21.361Z,39.50
2023-02-19T13:05:59.208Z,39.90
2023-02-19T13:08:39.547Z,39.50
2023-02-19T13:11:20.385Z,39.30
2023-02-19T13:14:12.721Z,39.00
2023-02-19T13:16:46.796Z,38.70
2023-02-19T13:19:15.603Z,39.80
2023-02-19T13:22:07.026Z,39.00
2023-02-19T13:24:39.589Z,40.70
2023-02-19T13:28:01.030Z,41.30
2023-02-19T13:30:57.554Z,41.00
2023-02-19T13:33:42.856Z,40.80
2023-02-19T13:36:20.458Z,40.30
2023-02-19T13:38:50.737Z,39.90
2023-02-19T13:41:40.477Z,40.90
2023-02-19T13:44:22.528Z,41.00
2023-02-19T13:46:51.585Z,41.40
2023-02-19T13:49:37.413Z,40.80
2023-02-19T13:52:33.761Z,40.40
2023-02-19T13:55:41.328Z,41.00
2023-02-19T13:58:33.553Z,41.60
2023-02-19T14:01:01.970Z,42.20
2023-02-19T14:03:40.086Z,42.10
2023-02-19T14:06:13.556Z,42.70
2023-02-19T14:08:50.707Z,42.80
2023-02-19T14:11:42.464Z,42.70
2023-02-19T14:14:38.016Z,43.30
2023-02-19T14:17:09.641Z,44.00
2023-02-19T14:19:43.518Z,46.00
2023-02-19T14:22:48.361Z,48.90
2023-02-19T14:25:30.996Z,52.50
2023-02-19T14:28:17.745Z,55.20
2023-02-19T14:30:57.454Z,57.30
2023-02-19T14:33:32.005Z,59.80
2023-02-19T14:36:04.374Z,60.80
2023-02-19T14:38:48.171Z,62.70
2023-02-19T14:41:17.577Z,63.70
2023-02-19T14:43:50.209Z,63.60
2023-02-19T14:46:31.541Z,64.30
2023-02-19T14:49:26.617Z,64.80
2023-02-19T14:52:00.906Z,65.80
2023-02-19T14:54:42.059Z,66.50
2023-02-19T14:57:33.842Z,68.00
2023-02-19T15:00:18.996Z,68.40
2023-02-19T15:02:47.266Z,69.00
2023-02-19T15:05:22.350Z,68.80
2023-02-19T15:07:51.860Z,68.50
2023-02-19T15:10:20.547Z,66.50
2023-02-19T15:12:53.029Z,65.60
2023-02-19T15:15:28.713Z,65.50
2023-02-19T15:17:58.306Z,64.80
2023-02-19T15:20:33.144Z,65.80
2023-02-19T15:23:02.773Z,66.00
2023-02-19T15:25:35.516Z,64.40
2023-02-19T15:28:25.455Z,63.60
2023-02-19T15:30:59.683Z,60.90
2023-02-19T15:33:28.852Z,56.90
2023-02-19T15:36:03.466Z,54.70
2023-02-19T15:38:31.990Z,53.10
2023-02-19T15:41:00.293Z,51.40
2023-02-19T15:43:51.209Z,50.70
2023-02-19T15:46:22.146Z,49.50
2023-02-19T15:49:08.364Z,49.70
2023-02-19T15:51:45.578Z,50.70
2023-02-19T15:54:29.060Z,49.00
2023-02-19T15:57:02.400Z,49.50
2023-02-19T15:59:43.459Z,49.50
2023-02-19T16:02:16.123Z,49.10
2023-02-19T16:04:45.714Z,49.40
2023-02-19T16:07:45.879Z,49.60
2023-02-19T16:10:24.926Z,50.30
2023-02-19T16:13:00.855Z,51.60
2023-02-19T16:15:31.177Z,49.50
2023-02-19T16:18:00.245Z,52.10
2023-02-19T16:20:33.985Z,55.00
2023-02-19T16:23:06.107Z,59.30
2023-02-19T16:26:01.727Z,62.20
2023-02-19T16:28:37.162Z,65.50
2023-02-19T16:31:14.447Z,68.50
2023-02-19T16:33:50.273Z,72.00
2023-02-19T16:36:37.700Z,75.90
2023-02-19T16:39:08.628Z,81.00
2023-02-19T16:41:48.164Z,84.40
2023-02-19T16:44:22.005Z,89.20
2023-02-19T16:46:52.172Z,90.70
2023-02-19T16:49:21.662Z,91.80
2023-02-19T16:51:50.248Z,92.40
2023-02-19T16:54:18.879Z,93.40
2023-02-19T16:56:47.239Z,93.90
2023-02-19T16:59:15.294Z,94.50
2023-02-19T17:01:43.676Z,94.60
2023-02-19T17:04:16.288Z,95.20
2023-02-19T17:06:46.306Z,95.30
2023-02-19T17:09:14.203Z,95.60
2023-02-19T17:11:42.217Z,95.50
2023-02-19T17:14:10.256Z,95.60
2023-02-19T17:16:43.819Z,95.40
2023-02-19T17:19:18.818Z,95.70
2023-02-19T17:21:47.675Z,96.10
2023-02-19T17:24:15.744Z,96.20
2023-02-19T17:26:43.886Z,96.40
2023-02-19T17:29:15.659Z,96.70
2023-02-19T17:31:44.089Z,96.90
2023-02-19T17:34:12.215Z,97.20
2023-02-19T17:36:41.580Z,97.30
2023-02-19T17:39:17.940Z,97.40
2023-02-19T17:41:46.692Z,97.50
2023-02-19T17:44:14.378Z,97.30
2023-02-19T17:46:42.575Z,97.30
2023-02-19T17:49:13.495Z,97.30
2023-02-19T17:51:41.511Z,97.40
2023-02-19T17:54:09.788Z,97.40
2023-02-19T17:56:38.944Z,97.40
2023-02-19T17:59:06.823Z,97.40
2023-02-19T18:01:34.888Z,97.40
2023-02-19T18:04:03.148Z,97.40
2023-02-19T18:06:31.257Z,97.40
2023-02-19T18:09:01.830Z,97.40
2023-02-19T18:11:29.977Z,97.30
2023-02-19T18:13:58.664Z,97.40
2023-02-19T18:16:26.707Z,97.50
2023-02-19T18:18:58.019Z,97.30
2023-02-19T18:21:26.307Z,97.70
2023-02-19T18:23:54.343Z,97.80
2023-02-19T18:26:22.688Z,98.10
2023-02-19T18:28:50.554Z,98.10
2023-02-19T18:31:19.007Z,98.10
2023-02-19T18:33:47.106Z,98.20
2023-02-19T18:36:15.405Z,98.30
2023-02-19T18:38:43.499Z,98.50
2023-02-19T18:41:19.861Z,98.60
2023-02-19T18:43:49.079Z,98.50
2023-02-19T18:46:21.393Z,98.60
2023-02-19T18:48:49.307Z,98.80
2023-02-19T18:51:17.048Z,98.80
2023-02-19T18:53:45.179Z,98.80
2023-02-19T18:56:12.920Z,99.10
2023-02-19T18:58:42.667Z,99.10
2023-02-19T19:01:13.500Z,99.20
2023-02-19T19:03:41.683Z,99.30
2023-02-19T19:06:09.489Z,99.50
2023-02-19T19:08:37.606Z,99.60
2023-02-19T19:11:05.795Z,99.80
2023-02-19T19:13:33.945Z,99.90
2023-02-19T19:16:01.904Z,99.90
2023-02-19T19:18:31.999Z,99.90
2023-02-19T19:21:03.866Z,99.90
2023-02-19T19:23:32.155Z,99.90
2023-02-19T19:26:00.024Z,99.90
2023-02-19T19:28:28.429Z,99.90
2023-02-19T19:30:56.451Z,99.90
2023-02-19T19:33:24.518Z,99.90
2023-02-19T19:35:52.425Z,99.90
2023-02-19T19:38:21.100Z,99.90
2023-02-19T19:40:49.050Z,99.90
2023-02-19T19:43:17.356Z,99.90
2023-02-19T19:45:45.399Z,99.90
2023-02-19T19:48:13.417Z,99.90
2023-02-19T19:50:41.300Z,99.90
2023-02-19T19:53:09.390Z,99.90
2023-02-19T19:55:37.298Z,99.90
2023-02-19T19:58:05.463Z,99.90
2023-02-19T20:00:33.431Z,99.90
2023-02-19T20:03:02.068Z,99.90
2023-02-19T20:05:30.113Z,99.90
2023-02-19T20:07:58.293Z,99.90
2023-02-19T20:10:26.307Z,99.90
2023-02-19T20:12:54.567Z,99.90
2023-02-19T20:15:23.591Z,99.90
2023-02-19T20:17:52.451Z,99.90
2023-02-19T20:20:21.956Z,99.90
2023-02-19T20:22:52.804Z,99.90
2023-02-19T20:25:23.211Z,99.90
2023-02-19T20:27:52.554Z,99.90
2023-02-19T20:30:22.935Z,99.90
2023-02-19T20:32:51.102Z,99.90
2023-02-19T20:35:19.174Z,99.90
2023-02-19T20:37:48.574Z,99.90
2023-02-19T20:40:18.630Z,99.90
2023-02-19T20:42:47.069Z,99.90
2023-02-19T20:45:18.882Z,99.90
2023-02-19T20:47:46.899Z,99.90
2023-02-19T20:50:19.156Z,99.90
2023-02-19T20:52:47.905Z,99.90
2023-02-19T20:55:16.093Z,99.90
2023-02-19T20:57:44.138Z,99.90
2023-02-19T21:00:12.696Z,99.90
2023-02-19T21:02:42.920Z,99.90
2023-02-19T21:05:11.413Z,99.90
2023-02-19T21:07:39.269Z,99.90
2023-02-19T21:10:07.883Z,99.90
2023-02-19T21:12:37.277Z,99.90
2023-02-19T21:15:06.390Z,99.90
2023-02-19T21:17:34.980Z,99.90
2023-02-19T21:20:03.434Z,99.90
2023-02-19T21:22:31.370Z,99.90
2023-02-19T21:24:59.436Z,99.90
2023-02-19T21:27:27.714Z,99.90
2023-02-19T21:29:56.024Z,99.90
2023-02-19T21:32:23.947Z,99.90
2023-02-19T21:34:52.286Z,99.90
2023-02-19T21:37:20.276Z,99.90
2023-02-19T21:39:48.443Z,99.90
2023-02-19T21:42:16.504Z,99.90
2023-02-19T21:44:44.518Z,99.90
2023-02-19T21:47:13.227Z,99.90
2023-02-19T21:49:47.357Z,99.90
2023-02-19T21:52:18.928Z,99.90
2023-02-19T21:54:47.101Z,99.90
2023-02-19T21:57:14.947Z,99.90
2023-02-19T21:59:43.084Z,99.90
2023-02-19T22:02:11.484Z,99.90
2023-02-19T22:04:39.651Z,99.90
2023-02-19T22:07:07.513Z,99.90
2023-02-19T22:09:35.753Z,99.90
2023-02-19T22:12:03.690Z,99.90
2023-02-19T22:14:32.217Z,99.90
2023-02-19T22:17:00.743Z,99.90
2023-02-19T22:19:29.072Z,99.90
2023-02-19T22:21:57.494Z,99.90
2023-02-19T22:24:25.914Z,99.90
2023-02-19T22:26:58.355Z,99.90
2023-02-19T22:29:27.043Z,99.90
2023-02-19T22:31:55.268Z,99.90
2023-02-19T22:34:24.027Z,99.90
2023-02-19T22:36:52.053Z,99.90
2023-02-19T22:39:23.625Z,99.90
2023-02-19T22:41:52.316Z,99.90
2023-02-19T22:44:20.316Z,99.90
2023-02-19T22:46:56.465Z,99.90
2023-02-19T22:49:24.584Z,99.90
2023-02-19T22:52:06.093Z,99.90
2023-02-19T22:54:34.274Z,99.90
2023-02-19T22:57:02.205Z,99.90
2023-02-19T22:59:30.316Z,99.90
2023-02-19T23:01:58.063Z,99.90
2023-02-19T23:04:26.834Z,99.90
2023-02-19T23:06:55.081Z,99.90
2023-02-19T23:09:28.318Z,99.90
2023-02-19T23:12:09.260Z,99.90
2023-02-19T23:14:38.067Z,99.90
2023-02-19T23:17:09.138Z,99.90
2023-02-19T23:19:38.332Z,99.90
2023-02-19T23:22:09.534Z,99.90
2023-02-19T23:24:37.424Z,99.90
2023-02-19T23:27:05.214Z,99.90
2023-02-19T23:29:36.417Z,99.90
2023-02-19T23:32:04.839Z,99.90
2023-02-19T23:34:32.784Z,99.90
2023-02-19T23:37:01.168Z,99.90
2023-02-19T23:39:29.355Z,99.90
2023-02-19T23:41:58.409Z,99.90
2023-02-19T23:44:27.278Z,99.90
2023-02-19T23:46:55.363Z,99.90
2023-02-19T23:49:23.323Z,99.90
2023-02-19T23:51:52.162Z,99.90
2023-02-19T23:54:20.095Z,99.90
2023-02-19T23:56:48.439Z,99.90
2023-02-19T23:59:16.514Z,99.90
